createdAt,value
2019-01-31T00:00:46.734Z,69.59
2019-01-31T00:03:39.746Z,69.81
2019-01-31T00:06:27.825Z,70.16
2019-01-31T00:09:39.298Z,70.54
2019-01-31T00:12:46.571Z,71.45
2019-01-31T00:15:48.347Z,73.47
2019-01-31T00:18:58.174Z,73.42
2019-01-31T00:22:03.357Z,73.91
2019-01-31T00:24:39.969Z,73.88
2019-01-31T00:27:41.953Z,74.15
2019-01-31T00:30:34.553Z,73.47
2019-01-31T00:33:26.217Z,72.08
2019-01-31T00:36:34.141Z,71.72
2019-01-31T00:39:40.499Z,71.73
2019-01-31T00:42:41.960Z,72.18
2019-01-31T00:45:59.279Z,72.33
2019-01-31T00:49:08.302Z,71.62
2019-01-31T00:52:35.154Z,72.20
2019-01-31T00:55:41.114Z,72.59
2019-01-31T00:58:42.822Z,72.19
2019-01-31T01:01:46.279Z,71.45
2019-01-31T01:05:04.729Z,72.21
2019-01-31T01:08:04.831Z,71.26
2019-01-31T01:10:57.702Z,71.42
2019-01-31T01:13:51.363Z,72.35
2019-01-31T01:16:52.361Z,72.43
2019-01-31T01:19:34.615Z,72.63
2019-01-31T01:22:32.335Z,72.58
2019-01-31T01:25:28.403Z,72.20
2019-01-31T01:28:27.192Z,71.83
2019-01-31T01:31:17.890Z,71.90
2019-01-31T01:34:17.022Z,72.09
2019-01-31T01:37:18.273Z,71.78
2019-01-31T01:40:43.438Z,71.66
2019-01-31T01:43:56.996Z,71.44
2019-01-31T01:46:40.842Z,72.04
2019-01-31T01:49:22.534Z,72.51
2019-01-31T01:52:15.960Z,72.43
2019-01-31T01:55:34.975Z,72.08
2019-01-31T01:58:43.688Z,72.63
2019-01-31T02:01:26.400Z,72.67
2019-01-31T02:04:33.801Z,72.34
2019-01-31T02:07:52.065Z,72.15
2019-01-31T02:10:59.436Z,71.60
2019-01-31T02:13:50.936Z,72.18
2019-01-31T02:16:53.560Z,72.50
2019-01-31T02:19:59.607Z,72.16
2019-01-31T02:23:00.437Z,72.98
2019-01-31T02:25:38.447Z,72.32
2019-01-31T02:28:27.307Z,72.09
2019-01-31T02:31:26.713Z,72.59
2019-01-31T02:34:46.721Z,72.73
2019-01-31T02:37:46.540Z,72.31
2019-01-31T02:40:43.770Z,72.99
2019-01-31T02:43:29.563Z,72.98
2019-01-31T02:46:42.072Z,72.61
2019-01-31T02:49:32.804Z,72.77
2019-01-31T02:52:45.486Z,72.67
2019-01-31T02:55:50.114Z,72.56
2019-01-31T02:58:58.331Z,72.32
2019-01-31T03:02:02.443Z,71.99
2019-01-31T03:05:34.823Z,72.47
2019-01-31T03:08:16.100Z,71.85
2019-01-31T03:11:14.673Z,72.30
2019-01-31T03:14:14.639Z,71.29
2019-01-31T03:17:26.143Z,71.90
2019-01-31T03:20:24.766Z,70.84
2019-01-31T03:23:09.782Z,71.30
2019-01-31T03:26:20.646Z,70.92
2019-01-31T03:29:24.651Z,71.37
2019-01-31T03:32:34.688Z,71.57
2019-01-31T03:35:42.026Z,72.21
2019-01-31T03:38:46.400Z,72.75
2019-01-31T03:42:04.504Z,71.54
2019-01-31T03:44:55.555Z,71.79
2019-01-31T03:48:14.818Z,72.38
2019-01-31T03:50:52.530Z,71.73
2019-01-31T03:53:50.170Z,72.25
2019-01-31T03:56:50.333Z,71.12
2019-01-31T03:59:36.996Z,71.52
2019-01-31T04:02:29.181Z,71.82
2019-01-31T04:05:27.621Z,72.41
2019-01-31T04:07:54.690Z,72.14
2019-01-31T04:10:21.778Z,71.13
2019-01-31T04:12:48.917Z,70.76
2019-01-31T04:15:15.961Z,72.92
2019-01-31T04:17:43.060Z,71.68
2019-01-31T04:20:10.299Z,71.32
2019-01-31T04:22:37.373Z,72.68
2019-01-31T04:25:04.858Z,72.74
2019-01-31T04:27:32.027Z,72.92
2019-01-31T04:29:59.078Z,72.18
2019-01-31T04:32:27.238Z,72.62
2019-01-31T04:34:54.275Z,73.00
2019-01-31T04:37:22.143Z,72.38
2019-01-31T04:39:49.185Z,72.91
2019-01-31T04:42:19.429Z,71.70
2019-01-31T04:44:46.458Z,72.31
2019-01-31T04:47:13.518Z,73.21
2019-01-31T04:49:40.915Z,72.31
2019-01-31T04:52:08.038Z,71.64
2019-01-31T04:54:35.095Z,71.20
2019-01-31T04:57:02.537Z,72.21
2019-01-31T04:59:30.157Z,72.39
2019-01-31T05:01:57.219Z,71.64
2019-01-31T05:04:24.255Z,72.46
2019-01-31T05:06:51.316Z,73.30
2019-01-31T05:09:18.397Z,72.46
2019-01-31T05:11:45.482Z,72.40
2019-01-31T05:14:12.501Z,71.68
2019-01-31T05:16:39.561Z,71.04
2019-01-31T05:19:07.709Z,72.43
2019-01-31T05:21:35.060Z,72.41
2019-01-31T05:24:02.099Z,71.26
2019-01-31T05:26:29.522Z,71.01
2019-01-31T05:28:57.277Z,72.55
2019-01-31T05:31:24.323Z,71.80
2019-01-31T05:33:51.351Z,72.07
2019-01-31T05:36:18.392Z,71.46
2019-01-31T05:38:45.416Z,70.76
2019-01-31T05:41:12.528Z,71.87
2019-01-31T05:43:39.571Z,71.26
2019-01-31T05:46:06.632Z,70.83
2019-01-31T05:48:35.097Z,71.09
2019-01-31T05:51:02.591Z,72.32
2019-01-31T05:53:30.321Z,72.03
2019-01-31T05:55:58.086Z,72.44
2019-01-31T05:58:25.433Z,72.29
2019-01-31T06:00:52.834Z,72.36
2019-01-31T06:03:20.160Z,72.11
2019-01-31T06:05:47.911Z,72.51
2019-01-31T06:08:16.017Z,72.53
2019-01-31T06:10:43.435Z,71.99
2019-01-31T06:13:12.337Z,71.65
2019-01-31T06:15:39.662Z,71.73
2019-01-31T06:18:06.715Z,70.63
2019-01-31T06:20:34.087Z,72.91
2019-01-31T06:23:01.441Z,71.73
2019-01-31T06:25:28.796Z,72.30
2019-01-31T06:27:55.847Z,72.50
2019-01-31T06:30:22.998Z,71.83
2019-01-31T06:32:50.445Z,71.41
2019-01-31T06:35:18.208Z,71.77
2019-01-31T06:37:45.570Z,72.16
2019-01-31T06:40:15.616Z,72.10
2019-01-31T06:42:42.937Z,72.47
2019-01-31T06:45:13.147Z,71.65
2019-01-31T06:47:40.198Z,70.89
2019-01-31T06:50:07.422Z,69.95
2019-01-31T06:52:35.609Z,70.12
2019-01-31T06:55:03.497Z,69.55
2019-01-31T06:57:30.554Z,69.42
2019-01-31T06:59:58.045Z,69.28
2019-01-31T07:02:25.108Z,68.25
2019-01-31T07:04:52.726Z,68.37
2019-01-31T07:07:20.209Z,68.12
2019-01-31T07:09:47.561Z,68.44
2019-01-31T07:12:14.869Z,68.71
2019-01-31T07:14:42.535Z,69.33
2019-01-31T07:17:09.597Z,68.79
2019-01-31T07:19:36.934Z,69.62
2019-01-31T07:22:04.020Z,69.55
2019-01-31T07:24:31.070Z,69.35
2019-01-31T07:26:58.140Z,68.93
2019-01-31T07:29:25.674Z,69.04
2019-01-31T07:31:53.399Z,68.64
2019-01-31T07:34:21.489Z,67.78
2019-01-31T07:36:51.390Z,68.70
2019-01-31T07:39:18.434Z,68.99
2019-01-31T07:41:45.836Z,69.65
2019-01-31T07:44:13.559Z,69.66
2019-01-31T07:46:40.907Z,69.67
2019-01-31T07:49:07.983Z,69.04
2019-01-31T07:51:35.039Z,69.17
2019-01-31T07:54:02.190Z,70.61
2019-01-31T07:56:29.626Z,70.40
2019-01-31T07:58:57.774Z,69.45
2019-01-31T08:01:27.110Z,69.66
2019-01-31T08:04:02.263Z,69.47
2019-01-31T08:06:23.614Z,70.14
2019-01-31T08:08:50.651Z,68.86
2019-01-31T08:11:18.827Z,68.85
2019-01-31T08:13:45.886Z,68.44
2019-01-31T08:16:12.944Z,67.98
2019-01-31T08:18:41.309Z,67.97
2019-01-31T08:21:10.446Z,65.97
2019-01-31T08:23:37.775Z,68.49
2019-01-31T08:26:04.955Z,68.93
2019-01-31T08:28:31.993Z,67.02
2019-01-31T08:30:59.954Z,66.02
2019-01-31T08:33:28.497Z,67.08
2019-01-31T08:35:55.783Z,68.30
2019-01-31T08:38:23.130Z,68.22
2019-01-31T08:40:50.641Z,68.07
2019-01-31T08:43:20.434Z,68.67
2019-01-31T08:45:47.652Z,67.82
2019-01-31T08:48:16.163Z,66.26
2019-01-31T08:50:43.358Z,66.73
2019-01-31T08:53:10.859Z,67.47
2019-01-31T08:55:37.926Z,68.10
2019-01-31T08:58:05.464Z,68.16
2019-01-31T09:00:33.216Z,66.31
2019-01-31T09:03:00.572Z,64.81
2019-01-31T09:05:27.732Z,66.62
2019-01-31T09:07:55.009Z,66.97
2019-01-31T09:10:27.986Z,67.78
2019-01-31T09:12:57.872Z,67.56
2019-01-31T09:15:25.942Z,67.34
2019-01-31T09:17:54.734Z,68.23
2019-01-31T09:20:43.279Z,68.55
2019-01-31T09:24:14.191Z,66.70
2019-01-31T09:27:26.443Z,65.89
2019-01-31T09:30:31.015Z,68.07
2019-01-31T09:33:40.398Z,67.31
2019-01-31T09:36:52.747Z,68.25
2019-01-31T09:39:52.294Z,67.14
2019-01-31T09:42:29.233Z,67.39
2019-01-31T09:45:33.808Z,67.19
2019-01-31T09:48:27.794Z,66.50
2019-01-31T09:51:26.629Z,67.27
2019-01-31T09:54:34.802Z,68.01
2019-01-31T09:57:42.299Z,68.75
2019-01-31T10:00:47.132Z,68.53
2019-01-31T10:03:50.915Z,68.96
2019-01-31T10:06:45.430Z,68.19
2019-01-31T10:09:37.136Z,67.86
2019-01-31T10:12:40.050Z,67.94
2019-01-31T10:15:28.907Z,68.64
2019-01-31T10:18:32.502Z,68.27
2019-01-31T10:21:25.222Z,68.26
2019-01-31T10:24:54.510Z,67.55
2019-01-31T10:28:10.900Z,67.58
2019-01-31T10:31:01.462Z,67.58
2019-01-31T10:34:02.813Z,67.19
2019-01-31T10:36:58.734Z,66.76
2019-01-31T10:39:54.146Z,68.28
2019-01-31T10:42:52.528Z,67.87
2019-01-31T10:45:49.885Z,67.10
2019-01-31T10:48:45.811Z,67.06
2019-01-31T10:51:48.303Z,66.35
2019-01-31T10:55:00.705Z,66.35
2019-01-31T10:58:04.681Z,67.02
2019-01-31T11:00:57.877Z,67.04
2019-01-31T11:03:49.094Z,65.69
2019-01-31T11:06:43.381Z,64.85
2019-01-31T11:09:29.225Z,64.37
2019-01-31T11:12:47.003Z,63.07
2019-01-31T11:15:33.610Z,64.39
2019-01-31T11:18:55.165Z,64.20
2019-01-31T11:22:22.904Z,64.56
2019-01-31T11:25:23.026Z,64.88
2019-01-31T11:28:23.926Z,64.60
2019-01-31T11:31:24.142Z,66.14
2019-01-31T11:34:32.738Z,65.65
2019-01-31T11:37:46.042Z,65.29
2019-01-31T11:40:56.918Z,66.28
2019-01-31T11:43:41.517Z,65.44
2019-01-31T11:46:48.158Z,65.28
2019-01-31T11:49:56.169Z,65.74
2019-01-31T11:52:39.896Z,66.09
2019-01-31T11:55:21.278Z,63.49
2019-01-31T11:58:36.778Z,65.05
2019-01-31T12:01:06.563Z,63.37
2019-01-31T12:03:33.627Z,64.24
2019-01-31T12:06:01.231Z,64.97
2019-01-31T12:08:28.845Z,63.95
2019-01-31T12:10:56.405Z,63.80
2019-01-31T12:13:24.059Z,64.25
2019-01-31T12:15:51.726Z,65.52
2019-01-31T12:18:18.903Z,66.94
2019-01-31T12:20:48.422Z,65.34
2019-01-31T12:23:17.385Z,64.67
2019-01-31T12:25:45.032Z,64.51
2019-01-31T12:28:15.062Z,63.69
2019-01-31T12:30:42.211Z,64.44
2019-01-31T12:33:09.334Z,65.45
2019-01-31T12:35:37.390Z,65.64
2019-01-31T12:38:04.564Z,65.16
2019-01-31T12:40:31.621Z,63.75
2019-01-31T12:42:58.698Z,63.05
2019-01-31T12:45:26.432Z,62.51
2019-01-31T12:47:54.818Z,64.01
2019-01-31T12:50:25.337Z,62.80
2019-01-31T12:52:53.100Z,61.70
2019-01-31T12:55:20.651Z,61.97
2019-01-31T12:57:48.461Z,62.83
2019-01-31T13:00:35.442Z,63.26
2019-01-31T13:03:02.515Z,62.29
2019-01-31T13:05:30.669Z,61.12
2019-01-31T13:07:59.551Z,62.65
2019-01-31T13:10:26.720Z,62.92
2019-01-31T13:12:54.706Z,63.23
2019-01-31T13:15:21.773Z,62.88
2019-01-31T13:17:53.934Z,61.65
2019-01-31T13:20:22.899Z,62.03
2019-01-31T13:22:55.042Z,61.41
2019-01-31T13:25:23.533Z,61.82
2019-01-31T13:27:50.988Z,61.53
2019-01-31T13:30:19.264Z,61.70
2019-01-31T13:32:46.451Z,62.26
2019-01-31T13:35:13.958Z,60.68
2019-01-31T13:37:41.247Z,60.19
2019-01-31T13:40:11.950Z,59.65
2019-01-31T13:42:40.750Z,58.91
2019-01-31T13:45:10.855Z,59.90
2019-01-31T13:47:39.708Z,59.23
2019-01-31T13:50:08.530Z,58.65
2019-01-31T13:52:35.947Z,59.57
2019-01-31T13:55:06.256Z,57.72
2019-01-31T13:57:33.319Z,58.69
2019-01-31T14:00:00.396Z,58.72
2019-01-31T14:02:27.520Z,59.80
2019-01-31T14:04:55.632Z,60.04
2019-01-31T14:07:24.163Z,60.25
2019-01-31T14:09:53.019Z,60.42
2019-01-31T14:12:20.078Z,59.74
2019-01-31T14:14:47.913Z,58.57
2019-01-31T14:17:15.297Z,58.76
2019-01-31T14:19:43.241Z,58.07
2019-01-31T14:22:12.614Z,57.97
2019-01-31T14:24:43.820Z,57.51
2019-01-31T14:27:12.587Z,57.16
2019-01-31T14:29:39.926Z,57.68
2019-01-31T14:32:09.378Z,58.74
2019-01-31T14:34:36.446Z,57.54
2019-01-31T14:37:03.641Z,58.94
2019-01-31T14:39:32.421Z,58.95
2019-01-31T14:42:00.711Z,60.35
2019-01-31T14:44:28.135Z,58.90
2019-01-31T14:46:56.030Z,59.57
2019-01-31T14:49:23.217Z,59.76
2019-01-31T14:51:50.626Z,59.93
2019-01-31T14:54:18.487Z,59.33
2019-01-31T14:56:45.891Z,62.51
2019-01-31T14:59:13.000Z,61.92
2019-01-31T15:01:40.076Z,63.07
2019-01-31T15:04:07.543Z,63.16
2019-01-31T15:06:34.603Z,62.33
2019-01-31T15:09:05.380Z,62.70
2019-01-31T15:11:33.767Z,62.94
2019-01-31T15:14:00.839Z,64.02
2019-01-31T15:16:28.302Z,64.43
2019-01-31T15:18:55.726Z,63.82
2019-01-31T15:21:23.375Z,65.37
2019-01-31T15:23:51.039Z,65.67
2019-01-31T15:26:18.120Z,65.42
2019-01-31T15:28:45.185Z,66.69
2019-01-31T15:31:12.279Z,66.34
2019-01-31T15:33:39.778Z,66.62
2019-01-31T15:36:06.847Z,67.26
2019-01-31T15:38:33.905Z,67.87
2019-01-31T15:41:01.001Z,68.37
2019-01-31T15:43:28.083Z,67.97
2019-01-31T15:45:55.161Z,68.58
2019-01-31T15:48:22.226Z,69.17
2019-01-31T15:50:49.306Z,68.82
2019-01-31T15:53:17.434Z,69.50
2019-01-31T15:55:44.516Z,69.80
2019-01-31T15:58:11.674Z,70.38
2019-01-31T16:00:47.915Z,70.43
2019-01-31T16:03:20.430Z,70.60
2019-01-31T16:05:47.561Z,70.37
2019-01-31T16:08:15.124Z,70.68
2019-01-31T16:10:43.331Z,70.47
2019-01-31T16:13:16.616Z,71.25
2019-01-31T16:15:44.592Z,71.10
2019-01-31T16:18:12.177Z,71.49
2019-01-31T16:20:40.063Z,71.28
2019-01-31T16:23:08.011Z,71.79
2019-01-31T16:25:35.099Z,71.07
2019-01-31T16:28:04.295Z,72.05
2019-01-31T16:30:31.629Z,72.24
2019-01-31T16:32:59.285Z,71.46
2019-01-31T16:35:26.468Z,71.19
2019-01-31T16:37:54.057Z,72.20
2019-01-31T16:40:22.893Z,72.00
2019-01-31T16:42:51.153Z,72.14
2019-01-31T16:45:19.347Z,71.97
2019-01-31T16:47:47.613Z,73.13
2019-01-31T16:50:15.875Z,72.43
2019-01-31T16:52:43.359Z,72.16
2019-01-31T16:55:13.383Z,73.04
2019-01-31T16:57:40.644Z,73.24
2019-01-31T17:00:13.420Z,73.37
2019-01-31T17:02:41.601Z,73.39
2019-01-31T17:05:13.274Z,73.12
2019-01-31T17:07:40.556Z,73.06
2019-01-31T17:10:08.032Z,73.54
2019-01-31T17:12:35.940Z,73.64
2019-01-31T17:15:03.675Z,73.24
2019-01-31T17:17:31.227Z,72.87
2019-01-31T17:19:58.284Z,73.25
2019-01-31T17:22:26.756Z,73.37
2019-01-31T17:24:53.807Z,73.44
2019-01-31T17:27:21.202Z,73.67
2019-01-31T17:29:50.144Z,73.28
2019-01-31T17:32:17.227Z,72.93
2019-01-31T17:34:44.863Z,72.86
2019-01-31T17:37:12.419Z,73.78
2019-01-31T17:39:41.614Z,73.11
2019-01-31T17:42:09.778Z,73.48
2019-01-31T17:44:36.891Z,73.54
2019-01-31T17:47:04.288Z,73.89
2019-01-31T17:49:31.339Z,73.91
2019-01-31T17:51:58.410Z,73.49
2019-01-31T17:54:25.459Z,73.90
2019-01-31T17:56:52.533Z,73.58
2019-01-31T17:59:19.597Z,73.29
2019-01-31T18:01:46.658Z,73.86
2019-01-31T18:04:13.739Z,74.16
2019-01-31T18:06:41.119Z,73.93
2019-01-31T18:09:10.265Z,73.07
2019-01-31T18:11:37.518Z,73.71
2019-01-31T18:14:05.819Z,73.25
2019-01-31T18:16:32.873Z,74.19
2019-01-31T18:19:01.054Z,73.78
2019-01-31T18:21:29.171Z,73.06
2019-01-31T18:23:56.223Z,72.95
2019-01-31T18:26:23.298Z,73.83
2019-01-31T18:28:50.367Z,73.49
2019-01-31T18:31:17.414Z,73.57
2019-01-31T18:33:44.534Z,74.07
2019-01-31T18:36:12.000Z,74.38
2019-01-31T18:38:39.857Z,74.45
2019-01-31T18:41:07.226Z,75.16
2019-01-31T18:43:34.565Z,74.48
2019-01-31T18:46:01.649Z,74.85
2019-01-31T18:48:29.103Z,74.82
2019-01-31T18:50:56.137Z,75.47
2019-01-31T18:53:23.465Z,75.65
2019-01-31T18:55:51.228Z,75.60
2019-01-31T18:58:18.587Z,76.04
2019-01-31T19:00:47.990Z,75.88
2019-01-31T19:03:15.123Z,75.45
2019-01-31T19:05:42.252Z,75.84
2019-01-31T19:08:09.438Z,75.09
2019-01-31T19:10:43.219Z,75.04
2019-01-31T19:13:05.990Z,74.84
2019-01-31T19:15:33.456Z,75.78
2019-01-31T19:18:06.055Z,76.17
2019-01-31T19:20:30.182Z,75.95
2019-01-31T19:22:59.173Z,76.23
2019-01-31T19:25:26.656Z,75.27
2019-01-31T19:27:53.714Z,75.28
2019-01-31T19:30:32.278Z,75.57
2019-01-31T19:32:59.330Z,75.76
2019-01-31T19:35:28.126Z,75.37
2019-01-31T19:38:02.216Z,75.44
2019-01-31T19:40:30.032Z,75.24
2019-01-31T19:42:57.753Z,75.24
2019-01-31T19:45:28.758Z,74.99
2019-01-31T19:47:56.623Z,75.03
2019-01-31T19:50:25.102Z,73.91
2019-01-31T19:52:54.792Z,74.62
2019-01-31T19:55:23.376Z,75.28
2019-01-31T19:57:50.672Z,75.45
2019-01-31T20:00:19.107Z,74.61
2019-01-31T20:02:46.767Z,73.24
2019-01-31T20:05:14.552Z,74.03
2019-01-31T20:07:43.068Z,74.06
2019-01-31T20:10:11.788Z,74.29
2019-01-31T20:12:39.259Z,74.88
2019-01-31T20:15:07.812Z,74.68
2019-01-31T20:17:36.429Z,74.04
2019-01-31T20:20:05.962Z,74.50
2019-01-31T20:22:33.997Z,75.27
2019-01-31T20:25:01.262Z,74.42
2019-01-31T20:27:29.267Z,75.18
2019-01-31T20:29:56.317Z,74.86
2019-01-31T20:32:23.641Z,75.59
2019-01-31T20:34:50.918Z,74.90
2019-01-31T20:37:18.091Z,75.05
2019-01-31T20:39:45.587Z,75.63
2019-01-31T20:42:13.856Z,76.17
2019-01-31T20:44:41.010Z,75.76
2019-01-31T20:47:08.270Z,75.75
2019-01-31T20:49:35.326Z,75.82
2019-01-31T20:52:03.489Z,75.91
2019-01-31T20:54:31.654Z,75.25
2019-01-31T20:56:59.130Z,75.35
2019-01-31T20:59:27.695Z,75.40
2019-01-31T21:01:54.750Z,76.16
2019-01-31T21:04:22.423Z,76.42
2019-01-31T21:06:50.118Z,76.50
2019-01-31T21:09:17.152Z,76.89
2019-01-31T21:11:44.231Z,77.19
2019-01-31T21:14:11.523Z,77.76
2019-01-31T21:16:51.001Z,77.54
2019-01-31T21:19:08.554Z,77.84
2019-01-31T21:21:35.718Z,77.19
2019-01-31T21:24:03.130Z,77.57
2019-01-31T21:26:30.193Z,77.76
2019-01-31T21:28:57.623Z,77.19
2019-01-31T21:31:24.983Z,77.81
2019-01-31T21:33:52.036Z,77.90
2019-01-31T21:36:19.093Z,77.96
2019-01-31T21:38:46.491Z,77.74
2019-01-31T21:41:13.850Z,77.58
2019-01-31T21:43:41.606Z,78.48
2019-01-31T21:46:08.998Z,77.68
2019-01-31T21:48:36.419Z,78.61
2019-01-31T21:51:03.466Z,78.62
2019-01-31T21:53:30.539Z,78.57
2019-01-31T21:55:57.868Z,78.28
2019-01-31T21:58:25.223Z,79.23
2019-01-31T22:00:52.598Z,79.59
2019-01-31T22:03:19.662Z,78.69
2019-01-31T22:05:46.739Z,78.18
2019-01-31T22:08:14.483Z,78.99
2019-01-31T22:10:41.537Z,79.58
2019-01-31T22:13:08.603Z,80.09
2019-01-31T22:15:35.651Z,79.64
2019-01-31T22:18:03.919Z,79.77
2019-01-31T22:20:30.967Z,79.45
2019-01-31T22:22:58.043Z,79.23
2019-01-31T22:25:25.479Z,79.26
2019-01-31T22:27:52.546Z,79.62
2019-01-31T22:30:24.662Z,79.64
2019-01-31T22:32:51.789Z,80.00
2019-01-31T22:35:18.838Z,79.49
2019-01-31T22:37:47.699Z,80.23
2019-01-31T22:40:15.972Z,79.78
2019-01-31T22:42:43.055Z,79.67
2019-01-31T22:45:12.616Z,79.65
2019-01-31T22:47:40.411Z,79.62
2019-01-31T22:50:09.832Z,79.85
2019-01-31T22:52:36.915Z,80.42
2019-01-31T22:55:05.441Z,80.19
2019-01-31T22:57:33.201Z,80.63
2019-01-31T23:00:00.652Z,80.59
2019-01-31T23:02:28.315Z,81.05
2019-01-31T23:04:56.483Z,81.07
2019-01-31T23:07:23.555Z,80.17
2019-01-31T23:09:50.611Z,80.49
2019-01-31T23:12:17.763Z,80.61
2019-01-31T23:14:44.827Z,80.84
2019-01-31T23:17:11.889Z,81.16
2019-01-31T23:19:38.957Z,81.06
2019-01-31T23:22:06.306Z,81.57
2019-01-31T23:24:33.370Z,81.81
2019-01-31T23:27:00.522Z,81.57
2019-01-31T23:29:27.594Z,81.97
2019-01-31T23:31:54.754Z,81.80
2019-01-31T23:34:21.841Z,81.64
2019-01-31T23:36:49.277Z,81.62
2019-01-31T23:39:19.069Z,81.58
2019-01-31T23:41:46.519Z,81.92
2019-01-31T23:44:14.366Z,81.90
2019-01-31T23:46:41.407Z,81.77
2019-01-31T23:49:08.478Z,81.76
2019-01-31T23:51:35.541Z,82.28
2019-01-31T23:54:02.718Z,82.25
2019-01-31T23:56:29.856Z,82.46
2019-01-31T23:58:56.887Z,82.47
